createdAt,value
2018-07-08T00:01:54.775Z,7.13
2018-07-08T00:04:23.591Z,7.43
2018-07-08T00:06:56.486Z,6.67
2018-07-08T00:09:26.022Z,7.70
2018-07-08T00:11:55.363Z,7.33
2018-07-08T00:14:24.954Z,8.40
2018-07-08T00:16:54.659Z,7.33
2018-07-08T00:19:24.307Z,8.03
2018-07-08T00:21:53.160Z,7.67
2018-07-08T00:24:21.953Z,7.90
2018-07-08T00:26:51.980Z,7.43
2018-07-08T00:29:21.401Z,7.80
2018-07-08T00:31:50.999Z,7.17
2018-07-08T00:34:19.875Z,8.57
2018-07-08T00:36:49.130Z,7.50
2018-07-08T00:39:18.545Z,7.33
2018-07-08T00:41:47.366Z,6.90
2018-07-08T00:44:16.254Z,7.30
2018-07-08T00:46:45.068Z,6.33
2018-07-08T00:49:14.046Z,7.40
2018-07-08T00:51:43.763Z,7.50
2018-07-08T00:54:12.592Z,7.20
2018-07-08T00:56:42.230Z,7.47
2018-07-08T00:59:12.166Z,8.37
2018-07-08T01:01:41.024Z,7.97
2018-07-08T01:04:09.874Z,8.93
2018-07-08T01:06:38.747Z,7.83
2018-07-08T01:09:08.175Z,7.53
2018-07-08T01:11:37.420Z,7.33
2018-07-08T01:14:08.098Z,9.63
2018-07-08T01:16:37.811Z,8.30
2018-07-08T01:19:07.413Z,8.77
2018-07-08T01:21:36.362Z,8.77
2018-07-08T01:24:05.781Z,8.13
2018-07-08T01:26:36.230Z,8.80
2018-07-08T01:29:06.183Z,7.83
2018-07-08T01:31:35.986Z,8.53
2018-07-08T01:34:05.162Z,7.73
2018-07-08T01:36:34.156Z,7.87
2018-07-08T01:39:04.331Z,7.63
2018-07-08T01:41:33.363Z,8.17
2018-07-08T01:44:02.141Z,8.10
2018-07-08T01:46:31.022Z,8.00
2018-07-08T01:48:59.839Z,6.33
2018-07-08T01:51:29.604Z,7.57
2018-07-08T01:53:58.426Z,7.10
2018-07-08T01:56:27.843Z,6.37
2018-07-08T01:58:56.754Z,6.77
2018-07-08T02:01:25.995Z,7.97
2018-07-08T02:03:54.800Z,7.47
2018-07-08T02:06:23.638Z,6.93
2018-07-08T02:08:53.187Z,5.87
2018-07-08T02:11:22.758Z,5.80
2018-07-08T02:13:54.293Z,6.13
2018-07-08T02:16:24.565Z,7.40
2018-07-08T02:18:54.019Z,6.43
2018-07-08T02:21:23.822Z,6.50
2018-07-08T02:23:53.489Z,6.27
2018-07-08T02:26:23.032Z,6.10
2018-07-08T02:28:51.892Z,5.87
2018-07-08T02:31:21.922Z,6.00
2018-07-08T02:33:50.784Z,5.87
2018-07-08T02:36:19.594Z,5.60
2018-07-08T02:38:49.326Z,5.03
2018-07-08T02:41:18.199Z,5.70
2018-07-08T02:43:47.034Z,5.47
2018-07-08T02:46:15.905Z,4.93
2018-07-08T02:48:44.774Z,5.83
2018-07-08T02:51:13.720Z,4.70
2018-07-08T02:53:43.383Z,4.93
2018-07-08T02:56:13.067Z,4.50
2018-07-08T02:58:41.863Z,4.80
2018-07-08T03:01:10.655Z,3.83
2018-07-08T03:03:39.438Z,4.60
2018-07-08T03:06:08.251Z,3.47
2018-07-08T03:08:37.762Z,3.83
2018-07-08T03:11:06.881Z,4.10
2018-07-08T03:13:37.067Z,4.30
2018-07-08T03:16:07.431Z,3.83
2018-07-08T03:18:37.492Z,4.10
2018-07-08T03:21:07.427Z,3.53
2018-07-08T03:23:37.262Z,3.97
2018-07-08T03:26:07.008Z,3.17
2018-07-08T03:28:35.898Z,3.67
2018-07-08T03:31:05.895Z,3.10
2018-07-08T03:33:34.935Z,4.00
2018-07-08T03:36:03.749Z,3.23
2018-07-08T03:38:33.688Z,3.60
2018-07-08T03:41:02.487Z,3.70
2018-07-08T03:43:31.227Z,3.23
2018-07-08T03:45:59.982Z,3.40
2018-07-08T03:48:28.742Z,3.23
2018-07-08T03:50:57.772Z,3.30
2018-07-08T03:53:27.397Z,2.90
2018-07-08T03:55:56.782Z,2.97
2018-07-08T03:58:25.590Z,2.80
2018-07-08T04:00:54.363Z,3.03
2018-07-08T04:03:23.182Z,2.77
2018-07-08T04:05:52.660Z,3.60
2018-07-08T04:08:22.454Z,2.50
2018-07-08T04:10:51.990Z,2.73
2018-07-08T04:13:20.845Z,2.40
2018-07-08T04:15:51.102Z,2.40
2018-07-08T04:18:20.689Z,1.60
2018-07-08T04:20:49.504Z,1.90
2018-07-08T04:23:19.083Z,1.50
2018-07-08T04:25:48.825Z,2.00
2018-07-08T04:28:17.586Z,1.60
2018-07-08T04:30:47.011Z,1.73
2018-07-08T04:33:15.759Z,2.00
2018-07-08T04:35:44.538Z,1.80
2018-07-08T04:38:14.058Z,1.83
2018-07-08T04:40:42.810Z,1.50
2018-07-08T04:43:11.659Z,1.57
2018-07-08T04:45:40.552Z,1.30
2018-07-08T04:48:09.314Z,1.63
2018-07-08T04:50:38.361Z,1.47
2018-07-08T04:53:08.051Z,1.67
2018-07-08T04:55:37.794Z,1.33
2018-07-08T04:58:06.936Z,1.60
2018-07-08T05:00:36.451Z,1.47
2018-07-08T05:03:05.603Z,1.30
2018-07-08T05:05:36.043Z,1.33
2018-07-08T05:08:05.934Z,1.30
2018-07-08T05:10:35.793Z,1.30
2018-07-08T05:13:05.122Z,1.47
2018-07-08T05:15:35.167Z,1.70
2018-07-08T05:18:04.846Z,1.63
2018-07-08T05:20:33.638Z,1.60
2018-07-08T05:23:03.865Z,1.60
2018-07-08T05:25:33.525Z,1.50
2018-07-08T05:28:02.622Z,1.70
2018-07-08T05:30:32.451Z,1.70
2018-07-08T05:33:01.251Z,1.37
2018-07-08T05:35:30.032Z,1.40
2018-07-08T05:38:00.383Z,1.50
2018-07-08T05:40:29.201Z,1.63
2018-07-08T05:42:57.938Z,1.40
2018-07-08T05:45:26.711Z,2.00
2018-07-08T05:47:55.493Z,1.60
2018-07-08T05:50:24.541Z,1.90
2018-07-08T05:52:54.508Z,1.60
2018-07-08T05:55:23.459Z,1.90
2018-07-08T05:57:53.039Z,1.53
2018-07-08T06:00:21.837Z,1.70
2018-07-08T06:02:50.673Z,1.40
2018-07-08T06:05:19.423Z,1.77
2018-07-08T06:07:48.774Z,1.40
2018-07-08T06:10:18.058Z,1.87
2018-07-08T06:12:46.802Z,1.47
2018-07-08T06:15:16.314Z,2.20
2018-07-08T06:17:45.809Z,1.33
2018-07-08T06:20:15.108Z,1.70
2018-07-08T06:22:44.596Z,1.53
2018-07-08T06:25:14.669Z,2.33
2018-07-08T06:27:43.455Z,1.40
2018-07-08T06:30:13.394Z,2.03
2018-07-08T06:32:42.151Z,1.30
2018-07-08T06:35:11.032Z,1.57
2018-07-08T06:37:40.498Z,1.53
2018-07-08T06:40:09.287Z,1.90
2018-07-08T06:42:38.146Z,1.33
2018-07-08T06:45:07.376Z,1.70
2018-07-08T06:47:36.618Z,1.20
2018-07-08T06:50:05.786Z,1.30
2018-07-08T06:52:36.320Z,1.40
2018-07-08T06:55:05.586Z,1.50
2018-07-08T06:57:35.699Z,1.30
2018-07-08T07:00:05.303Z,1.30
2018-07-08T07:02:34.143Z,1.80
2018-07-08T07:05:02.974Z,1.50
2018-07-08T07:07:32.523Z,1.60
2018-07-08T07:10:01.896Z,1.07
2018-07-08T07:12:31.496Z,1.80
2018-07-08T07:15:01.070Z,1.20
2018-07-08T07:17:30.705Z,1.73
2018-07-08T07:20:00.265Z,1.10
2018-07-08T07:22:29.850Z,1.80
2018-07-08T07:24:59.549Z,1.30
2018-07-08T07:27:28.346Z,1.97
2018-07-08T07:29:57.142Z,1.37
2018-07-08T07:32:26.786Z,1.77
2018-07-08T07:34:55.554Z,1.17
2018-07-08T07:37:25.801Z,1.67
2018-07-08T07:39:54.603Z,1.30
2018-07-08T07:42:23.398Z,1.67
2018-07-08T07:44:52.242Z,1.20
2018-07-08T07:47:21.085Z,2.23
2018-07-08T07:49:49.939Z,1.10
2018-07-08T07:52:19.283Z,1.90
2018-07-08T07:54:48.062Z,1.10
2018-07-08T07:57:17.486Z,1.70
2018-07-08T07:59:46.290Z,1.20
2018-07-08T08:02:15.241Z,2.10
2018-07-08T08:04:44.007Z,1.20
2018-07-08T08:07:13.652Z,1.30
2018-07-08T08:09:43.011Z,1.50
2018-07-08T08:12:12.166Z,1.73
2018-07-08T08:14:41.561Z,1.27
2018-07-08T08:17:11.580Z,1.60
2018-07-08T08:19:41.376Z,1.37
2018-07-08T08:22:10.795Z,1.23
2018-07-08T08:24:39.587Z,1.20
2018-07-08T08:27:08.460Z,1.23
2018-07-08T08:29:37.795Z,1.40
2018-07-08T08:32:07.415Z,1.70
2018-07-08T08:34:52.779Z,0.97
2018-07-08T08:37:25.305Z,1.50
2018-07-08T08:39:55.296Z,1.50
2018-07-08T08:42:24.090Z,1.30
2018-07-08T08:44:54.366Z,1.10
2018-07-08T08:47:23.623Z,1.30
2018-07-08T08:49:53.076Z,0.93
2018-07-08T08:52:22.325Z,1.30
2018-07-08T08:54:51.319Z,1.10
2018-07-08T08:57:20.811Z,1.20
2018-07-08T08:59:49.619Z,1.10
2018-07-08T09:02:18.393Z,1.30
2018-07-08T09:04:47.262Z,1.20
2018-07-08T09:07:18.090Z,1.00
2018-07-08T09:09:47.468Z,0.97
2018-07-08T09:12:16.355Z,1.00
2018-07-08T09:14:46.196Z,1.10
2018-07-08T09:17:15.661Z,1.10
2018-07-08T09:19:45.039Z,1.17
2018-07-08T09:22:14.508Z,1.23
2018-07-08T09:24:43.291Z,1.20
2018-07-08T09:27:12.066Z,1.07
2018-07-08T09:29:40.872Z,1.50
2018-07-08T09:32:10.438Z,1.00
2018-07-08T09:34:39.165Z,1.20
2018-07-08T09:37:23.098Z,0.93
2018-07-08T09:39:51.868Z,0.90
2018-07-08T09:42:21.713Z,1.20
2018-07-08T09:44:50.474Z,0.93
2018-07-08T09:47:19.838Z,1.70
2018-07-08T09:49:48.650Z,0.90
2018-07-08T09:52:18.088Z,1.20
2018-07-08T09:54:46.822Z,1.17
2018-07-08T09:57:16.226Z,1.13
2018-07-08T09:59:44.974Z,1.20
2018-07-08T10:02:14.218Z,1.27
2018-07-08T10:04:43.014Z,1.10
2018-07-08T10:07:12.665Z,1.03
2018-07-08T10:09:42.183Z,1.10
2018-07-08T10:12:10.988Z,1.30
2018-07-08T10:14:40.691Z,1.13
2018-07-08T10:17:10.047Z,1.10
2018-07-08T10:19:39.821Z,1.10
2018-07-08T10:22:09.251Z,1.03
2018-07-08T10:24:38.049Z,1.47
2018-07-08T10:27:16.850Z,0.90
2018-07-08T10:29:45.588Z,0.90
2018-07-08T10:32:15.142Z,1.00
2018-07-08T10:34:44.010Z,1.30
2018-07-08T10:37:13.757Z,1.03
2018-07-08T10:39:43.043Z,1.20
2018-07-08T10:42:11.860Z,1.00
2018-07-08T10:44:40.590Z,1.33
2018-07-08T10:47:09.461Z,0.93
2018-07-08T10:49:38.199Z,1.50
2018-07-08T10:52:07.653Z,1.10
2018-07-08T10:54:37.214Z,1.00
2018-07-08T10:57:07.511Z,1.00
2018-07-08T10:59:36.886Z,0.80
2018-07-08T11:02:06.251Z,0.90
2018-07-08T11:04:36.109Z,0.90
2018-07-08T11:07:06.883Z,1.13
2018-07-08T11:09:39.620Z,1.20
2018-07-08T11:12:08.432Z,1.10
2018-07-08T11:14:38.034Z,1.10
2018-07-08T11:17:07.617Z,1.23
2018-07-08T11:19:38.657Z,1.23
2018-07-08T11:22:08.130Z,1.13
2018-07-08T11:24:37.286Z,1.30
2018-07-08T11:27:07.202Z,1.27
2018-07-08T11:29:36.506Z,1.10
2018-07-08T11:32:06.472Z,1.23
2018-07-08T11:34:38.684Z,1.17
2018-07-08T11:37:08.451Z,1.10
2018-07-08T11:39:37.263Z,1.23
2018-07-08T11:42:06.540Z,1.20
2018-07-08T11:44:35.850Z,1.20
2018-07-08T11:47:04.857Z,1.00
2018-07-08T11:49:34.789Z,1.20
2018-07-08T11:52:04.846Z,1.20
2018-07-08T11:54:34.272Z,1.17
2018-07-08T11:57:04.112Z,1.03
2018-07-08T11:59:32.953Z,1.17
2018-07-08T12:02:01.709Z,1.40
2018-07-08T12:04:30.526Z,1.00
2018-07-08T12:07:00.253Z,1.17
2018-07-08T12:09:29.699Z,0.80
2018-07-08T12:11:58.636Z,1.40
2018-07-08T12:14:28.205Z,1.40
2018-07-08T12:16:58.028Z,1.07
2018-07-08T12:19:27.444Z,1.10
2018-07-08T12:21:56.922Z,0.90
2018-07-08T12:24:25.852Z,1.17
2018-07-08T12:26:54.712Z,1.00
2018-07-08T12:29:23.492Z,1.30
2018-07-08T12:31:53.024Z,0.73
2018-07-08T12:34:21.784Z,1.20
2018-07-08T12:36:51.761Z,0.90
2018-07-08T12:39:20.916Z,1.23
2018-07-08T12:41:56.086Z,1.00
2018-07-08T12:44:24.867Z,1.17
2018-07-08T12:46:53.929Z,1.00
2018-07-08T12:49:22.736Z,1.17
2018-07-08T12:51:53.788Z,0.83
2018-07-08T12:54:22.540Z,1.10
2018-07-08T12:56:52.124Z,0.90
2018-07-08T12:59:20.877Z,1.20
2018-07-08T13:01:49.671Z,0.80
2018-07-08T13:04:18.450Z,1.10
2018-07-08T13:06:47.267Z,1.10
2018-07-08T13:09:16.710Z,1.20
2018-07-08T13:11:45.559Z,1.10
2018-07-08T13:14:15.423Z,1.50
2018-07-08T13:16:45.158Z,1.10
2018-07-08T13:19:14.979Z,1.50
2018-07-08T13:21:44.280Z,0.90
2018-07-08T13:24:13.085Z,2.00
2018-07-08T13:26:41.848Z,1.10
2018-07-08T13:29:10.882Z,1.40
2018-07-08T13:31:40.184Z,1.20
2018-07-08T13:34:10.260Z,1.30
2018-07-08T13:36:39.076Z,1.00
2018-07-08T13:39:09.995Z,1.20
2018-07-08T13:41:39.184Z,1.00
2018-07-08T13:44:08.088Z,1.27
2018-07-08T13:46:37.290Z,1.03
2018-07-08T13:49:06.591Z,1.30
2018-07-08T13:51:36.602Z,0.90
2018-07-08T13:54:06.471Z,1.60
2018-07-08T13:56:36.592Z,0.83
2018-07-08T13:59:05.813Z,1.40
2018-07-08T14:01:34.815Z,0.87
2018-07-08T14:04:03.747Z,1.00
2018-07-08T14:06:32.749Z,1.17
2018-07-08T14:09:02.471Z,1.30
2018-07-08T14:11:31.274Z,0.90
2018-07-08T14:14:01.091Z,1.20
2018-07-08T14:16:30.616Z,0.90
2018-07-08T14:19:00.175Z,1.10
2018-07-08T14:21:29.835Z,1.23
2018-07-08T14:23:58.683Z,1.00
2018-07-08T14:26:27.926Z,1.30
2018-07-08T14:28:56.928Z,1.30
2018-07-08T14:31:26.270Z,0.90
2018-07-08T14:33:55.012Z,1.00
2018-07-08T14:36:23.742Z,1.20
2018-07-08T14:38:53.089Z,1.00
2018-07-08T14:41:21.940Z,1.50
2018-07-08T14:43:50.720Z,0.93
2018-07-08T14:46:19.556Z,1.27
2018-07-08T14:48:48.367Z,1.30
2018-07-08T14:51:17.254Z,1.23
2018-07-08T14:53:46.858Z,0.83
2018-07-08T14:56:16.563Z,1.20
2018-07-08T14:58:45.345Z,0.90
2018-07-08T15:01:14.130Z,1.17
2018-07-08T15:03:42.914Z,0.87
2018-07-08T15:06:11.810Z,1.10
2018-07-08T15:08:41.755Z,0.67
2018-07-08T15:11:10.515Z,1.07
2018-07-08T15:13:40.134Z,0.93
2018-07-08T15:16:10.088Z,1.40
2018-07-08T15:18:39.639Z,0.63
2018-07-08T15:21:09.341Z,1.30
2018-07-08T15:23:39.054Z,0.80
2018-07-08T15:26:07.877Z,1.00
2018-07-08T15:28:37.560Z,0.90
2018-07-08T15:31:07.276Z,1.33
2018-07-08T15:33:37.090Z,1.00
2018-07-08T15:36:10.962Z,1.20
2018-07-08T15:38:40.647Z,1.07
2018-07-08T15:41:09.429Z,1.20
2018-07-08T15:43:42.819Z,0.90
2018-07-08T15:46:11.540Z,1.17
2018-07-08T15:48:40.482Z,0.90
2018-07-08T15:51:09.291Z,1.10
2018-07-08T15:53:39.486Z,0.90
2018-07-08T15:56:09.012Z,1.53
2018-07-08T15:58:37.794Z,0.80
2018-07-08T16:01:06.743Z,1.30
2018-07-08T16:03:36.482Z,0.90
2018-07-08T16:06:06.435Z,1.40
2018-07-08T16:08:36.975Z,0.90
2018-07-08T16:11:07.625Z,1.40
2018-07-08T16:13:38.007Z,0.80
2018-07-08T16:16:08.398Z,1.10
2018-07-08T16:18:38.814Z,1.00
2018-07-08T16:21:07.524Z,1.30
2018-07-08T16:23:37.644Z,0.83
2018-07-08T16:26:07.301Z,1.20
2018-07-08T16:28:36.486Z,0.90
2018-07-08T16:31:06.625Z,0.93
2018-07-08T16:33:35.882Z,0.87
2018-07-08T16:36:05.043Z,1.17
2018-07-08T16:38:35.097Z,1.10
2018-07-08T16:41:04.156Z,1.30
2018-07-08T16:43:32.914Z,1.00
2018-07-08T16:46:01.769Z,1.20
2018-07-08T16:48:30.589Z,0.80
2018-07-08T16:50:59.489Z,1.20
2018-07-08T16:53:29.146Z,0.90
2018-07-08T16:55:58.562Z,1.20
2018-07-08T16:58:27.350Z,0.90
2018-07-08T17:00:56.618Z,1.70
2018-07-08T17:03:25.413Z,0.97
2018-07-08T17:05:54.738Z,1.00
2018-07-08T17:08:24.250Z,1.00
2018-07-08T17:10:53.135Z,1.00
2018-07-08T17:13:22.018Z,0.80
2018-07-08T17:15:51.689Z,1.30
2018-07-08T17:18:21.530Z,0.93
2018-07-08T17:20:50.379Z,1.03
2018-07-08T17:23:20.048Z,1.03
2018-07-08T17:25:49.139Z,1.50
2018-07-08T17:30:47.441Z,0.90
2018-07-08T17:33:17.042Z,1.10
2018-07-08T17:35:45.798Z,1.57
2018-07-08T17:38:15.960Z,0.90
2018-07-08T17:40:44.758Z,1.30
2018-07-08T17:43:13.523Z,1.20
2018-07-08T17:45:42.378Z,1.30
2018-07-08T17:48:11.182Z,0.83
2018-07-08T17:50:41.698Z,1.30
2018-07-08T17:53:11.210Z,1.57
2018-07-08T17:55:40.906Z,0.80
2018-07-08T17:58:09.667Z,1.17
2018-07-08T18:00:38.564Z,0.77
2018-07-08T18:03:07.566Z,2.20
2018-07-08T18:05:36.735Z,0.93
2018-07-08T18:08:07.476Z,1.20
2018-07-08T18:10:38.054Z,0.80
2018-07-08T18:13:07.203Z,1.23
2018-07-08T18:15:37.750Z,1.00
2018-07-08T18:18:08.402Z,2.27
2018-07-08T18:20:38.482Z,1.30
2018-07-08T18:23:07.990Z,1.30
2018-07-08T18:25:37.219Z,1.00
2018-07-08T18:28:06.476Z,1.90
2018-07-08T18:30:37.022Z,1.00
2018-07-08T18:33:07.514Z,2.33
2018-07-08T18:35:36.738Z,0.97
2018-07-08T18:38:06.518Z,1.30
2018-07-08T18:40:35.616Z,0.77
2018-07-08T18:43:04.696Z,1.77
2018-07-08T18:45:33.525Z,0.80
2018-07-08T18:48:02.416Z,1.10
2018-07-08T18:50:31.466Z,0.80
2018-07-08T18:53:01.514Z,1.23
2018-07-08T18:55:31.014Z,0.77
2018-07-08T18:58:00.559Z,1.17
2018-07-08T19:00:29.299Z,1.13
2018-07-08T19:02:58.070Z,1.20
2018-07-08T19:05:26.899Z,1.00
2018-07-08T19:07:56.528Z,1.40
2018-07-08T19:10:25.332Z,0.97
2018-07-08T19:12:54.138Z,1.20
2018-07-08T19:15:23.784Z,0.87
2018-07-08T19:17:53.194Z,0.90
2018-07-08T19:20:22.618Z,0.87
2018-07-08T19:22:52.182Z,1.33
2018-07-08T19:25:20.957Z,0.73
2018-07-08T19:27:49.811Z,1.00
2018-07-08T19:30:19.442Z,0.93
2018-07-08T19:32:48.864Z,0.90
2018-07-08T19:35:17.698Z,1.47
2018-07-08T19:37:47.047Z,1.00
2018-07-08T19:40:15.823Z,1.40
2018-07-08T19:42:44.663Z,1.30
2018-07-08T19:45:13.534Z,1.40
2018-07-08T19:47:42.271Z,1.70
2018-07-08T19:50:11.177Z,1.43
2018-07-08T19:52:40.815Z,1.73
2018-07-08T19:55:09.603Z,1.17
2018-07-08T19:57:39.123Z,1.77
2018-07-08T20:00:08.402Z,1.03
2018-07-08T20:02:37.378Z,1.30
2018-07-08T20:05:07.090Z,1.10
2018-07-08T20:07:37.713Z,1.47
2018-07-08T20:10:08.507Z,1.00
2018-07-08T20:12:37.510Z,1.87
2018-07-08T20:15:07.431Z,1.30
2018-07-08T20:17:37.495Z,1.43
2018-07-08T20:20:08.207Z,1.13
2018-07-08T20:22:38.652Z,1.87
2018-07-08T20:25:07.955Z,1.20
2018-07-08T20:27:37.106Z,1.40
2018-07-08T20:30:06.879Z,1.37
2018-07-08T20:32:36.694Z,1.37
2018-07-08T20:35:07.749Z,1.57
2018-07-08T20:37:36.009Z,2.00
2018-07-08T20:40:05.105Z,1.57
2018-07-08T20:42:33.999Z,2.20
2018-07-08T20:45:03.420Z,1.10
2018-07-08T20:47:32.323Z,1.67
2018-07-08T20:50:01.249Z,1.30
2018-07-08T20:52:30.771Z,1.50
2018-07-08T20:55:00.148Z,2.57
2018-07-08T20:57:29.716Z,0.93
2018-07-08T20:59:58.564Z,1.73
2018-07-08T21:02:27.341Z,1.13
2018-07-08T21:04:56.227Z,1.53
2018-07-08T21:07:25.622Z,1.43
2018-07-08T21:09:55.007Z,2.00
2018-07-08T21:12:23.911Z,1.83
2018-07-08T21:14:54.797Z,2.10
2018-07-08T21:17:24.275Z,1.40
2018-07-08T21:19:54.106Z,2.27
2018-07-08T21:22:23.592Z,1.33
2018-07-08T21:24:52.418Z,1.63
2018-07-08T21:27:21.244Z,1.10
2018-07-08T21:29:50.055Z,1.60
2018-07-08T21:32:19.538Z,1.10
2018-07-08T21:34:48.398Z,1.37
2018-07-08T21:37:18.176Z,1.20
2018-07-08T21:39:47.049Z,1.30
2018-07-08T21:42:15.922Z,1.53
2018-07-08T21:44:44.990Z,1.70
2018-07-08T21:47:13.836Z,1.60
2018-07-08T21:49:42.738Z,1.43
2018-07-08T21:52:12.557Z,1.27
2018-07-08T21:54:41.345Z,1.60
2018-07-08T21:57:10.935Z,1.30
2018-07-08T21:59:39.740Z,1.57
2018-07-08T22:02:20.856Z,1.43
2018-07-08T22:04:50.341Z,1.30
2018-07-08T22:07:28.761Z,1.50
2018-07-08T22:09:58.475Z,1.57
2018-07-08T22:12:28.377Z,1.60
2018-07-08T22:14:57.814Z,2.10
2018-07-08T22:17:27.464Z,1.80
2018-07-08T22:19:57.135Z,1.60
2018-07-08T22:22:27.389Z,1.50
2018-07-08T22:24:56.475Z,1.43
2018-07-08T22:27:25.350Z,1.00
2018-07-08T22:29:54.178Z,1.53
2018-07-08T22:32:23.604Z,1.50
2018-07-08T22:34:52.419Z,1.60
2018-07-08T22:37:22.388Z,1.60
2018-07-08T22:39:51.154Z,1.57
2018-07-08T22:42:19.956Z,1.23
2018-07-08T22:44:48.890Z,1.80
2018-07-08T22:47:17.710Z,1.20
2018-07-08T22:49:47.125Z,1.70
2018-07-08T22:52:16.831Z,1.50
2018-07-08T22:54:45.644Z,1.60
2018-07-08T22:57:15.303Z,1.20
2018-07-08T22:59:55.011Z,2.30
2018-07-08T23:02:45.508Z,1.57
2018-07-08T23:05:14.681Z,1.30
2018-07-08T23:07:45.101Z,1.27
2018-07-08T23:10:14.612Z,1.37
2018-07-08T23:12:43.867Z,1.67
2018-07-08T23:15:14.130Z,1.40
2018-07-08T23:17:45.752Z,1.63
2018-07-08T23:20:15.223Z,1.40
2018-07-08T23:22:55.480Z,1.50
2018-07-08T23:25:24.384Z,1.17
2018-07-08T23:27:53.206Z,1.77
2018-07-08T23:30:22.669Z,1.33
2018-07-08T23:32:52.646Z,1.80
2018-07-08T23:35:21.494Z,1.20
2018-07-08T23:37:51.096Z,1.57
2018-07-08T23:40:19.893Z,1.63
2018-07-08T23:42:48.690Z,1.53
2018-07-08T23:45:19.195Z,1.40
2018-07-08T23:47:48.111Z,1.93
2018-07-08T23:50:17.003Z,1.20
2018-07-08T23:52:46.842Z,1.87
2018-07-08T23:55:15.645Z,1.10
2018-07-08T23:57:45.045Z,1.37
